Time,TemperatureF,DewpointF,PressureIn,WindDirection,WindDirectionDegrees,WindSpeedMPH,WindSpeedGustMPH,Humidity,HourlyPrecipIn,Conditions,Clouds,dailyrainin,SolarRadiationWatts/m^2,SoftwareType,DateUTC
2013-07-13 00:01:00,77.0,62.0,-100.00,South,169,13.0,21.0,59,0.00,,,0.00,0.000000,,2013-07-13 05:01:00,
2013-07-13 00:11:00,77.0,63.0,-100.00,SSE,165,16.0,22.0,61,0.00,,,0.00,0.000000,,2013-07-13 05:11:00,
2013-07-13 00:33:00,77.0,63.0,-100.00,SSE,165,16.0,22.0,61,0.00,,,0.00,0.000000,,2013-07-13 05:33:00,
2013-07-13 00:42:00,77.0,63.0,-100.00,SSE,165,16.0,22.0,61,0.00,,,0.00,0.000000,,2013-07-13 05:42:00,
2013-07-13 00:52:00,77.0,63.0,-100.00,SSE,165,16.0,22.0,61,0.00,,,0.00,0.000000,,2013-07-13 05:52:00,
2013-07-13 01:02:00,77.0,63.0,-100.00,SSE,165,16.0,22.0,61,0.00,,,0.00,0.000000,,2013-07-13 06:02:00,
2013-07-13 01:11:00,71.0,65.0,-100.00,South,169,16.0,25.0,81,0.26,,,0.26,0.000000,,2013-07-13 06:11:00,
2013-07-13 01:43:00,71.0,65.0,-100.00,South,169,16.0,25.0,81,0.26,,,0.26,0.000000,,2013-07-13 06:43:00,
2013-07-13 01:52:00,71.0,65.0,-100.00,South,169,16.0,25.0,81,0.26,,,0.26,0.000000,,2013-07-13 06:52:00,
2013-07-13 02:02:00,71.0,65.0,-100.00,South,169,16.0,25.0,81,0.26,,,0.26,0.000000,,2013-07-13 07:02:00,
2013-07-13 02:11:00,71.0,66.0,-100.00,SSE,159,12.0,22.0,83,0.01,,,0.27,0.000000,,2013-07-13 07:11:00,
2013-07-13 02:44:00,71.0,66.0,-100.00,SSE,159,12.0,22.0,83,0.01,,,0.27,0.000000,,2013-07-13 07:44:00,
2013-07-13 02:53:00,71.0,66.0,-100.00,SSE,159,12.0,22.0,83,0.01,,,0.27,0.000000,,2013-07-13 07:53:00,
2013-07-13 03:02:00,71.0,66.0,-100.00,SSE,159,12.0,22.0,83,0.01,,,0.27,0.000000,,2013-07-13 08:02:00,
2013-07-13 03:11:00,70.0,66.0,-100.00,SE,128,6.0,15.0,88,0.00,,,0.27,0.000000,,2013-07-13 08:11:00,
2013-07-13 03:43:00,70.0,66.0,-100.00,SE,128,6.0,15.0,88,0.00,,,0.27,0.000000,,2013-07-13 08:43:00,
2013-07-13 03:52:00,70.0,66.0,-100.00,SE,128,6.0,15.0,88,0.00,,,0.27,0.000000,,2013-07-13 08:52:00,
2013-07-13 04:02:00,70.0,66.0,-100.00,SE,128,6.0,15.0,88,0.00,,,0.27,0.000000,,2013-07-13 09:02:00,
2013-07-13 04:11:00,70.0,66.0,-100.00,ESE,116,9.0,14.0,86,0.00,,,0.27,0.000000,,2013-07-13 09:11:00,
2013-07-13 04:43:00,70.0,66.0,-100.00,ESE,116,9.0,14.0,86,0.00,,,0.27,0.000000,,2013-07-13 09:43:00,
2013-07-13 04:53:00,70.0,66.0,-100.00,ESE,116,9.0,14.0,86,0.00,,,0.27,0.000000,,2013-07-13 09:53:00,
2013-07-13 05:01:00,70.0,66.0,-100.00,ESE,116,9.0,14.0,86,0.00,,,0.27,0.000000,,2013-07-13 10:01:00,
2013-07-13 05:11:00,69.0,65.0,-100.00,SE,124,8.0,14.0,88,0.00,,,0.27,0.000000,,2013-07-13 10:11:00,
2013-07-13 05:43:00,69.0,65.0,-100.00,SE,124,8.0,14.0,88,0.00,,,0.27,0.000000,,2013-07-13 10:43:00,
2013-07-13 05:52:00,69.0,65.0,-100.00,SE,124,8.0,14.0,88,0.00,,,0.27,0.000000,,2013-07-13 10:52:00,
2013-07-13 06:02:00,69.0,65.0,-100.00,SE,124,8.0,14.0,88,0.00,,,0.27,0.000000,,2013-07-13 11:02:00,
2013-07-13 06:11:00,68.0,65.0,-100.00,ESE,122,9.0,19.0,90,0.00,,,0.27,2.000000,,2013-07-13 11:11:00,
2013-07-13 06:43:00,68.0,65.0,-100.00,ESE,122,9.0,19.0,90,0.00,,,0.27,2.000000,,2013-07-13 11:43:00,
2013-07-13 06:52:00,68.0,65.0,-100.00,ESE,122,9.0,19.0,90,0.00,,,0.27,2.000000,,2013-07-13 11:52:00,
2013-07-13 07:02:00,68.0,65.0,-100.00,ESE,122,9.0,19.0,90,0.00,,,0.27,2.000000,,2013-07-13 12:02:00,
2013-07-13 07:11:00,68.0,64.0,-100.00,SE,128,14.0,24.0,88,0.00,,,0.27,20.000000,,2013-07-13 12:11:00,
2013-07-13 07:43:00,68.0,64.0,-100.00,SE,128,14.0,24.0,88,0.00,,,0.27,20.000000,,2013-07-13 12:43:00,
2013-07-13 07:52:00,68.0,64.0,-100.00,SE,128,14.0,24.0,88,0.00,,,0.27,20.000000,,2013-07-13 12:52:00,
2013-07-13 08:01:00,68.0,64.0,-100.00,SE,128,14.0,24.0,88,0.00,,,0.27,20.000000,,2013-07-13 13:01:00,
2013-07-13 08:11:00,68.0,64.0,-100.00,SE,134,14.0,22.0,88,0.00,,,0.27,62.000000,,2013-07-13 13:11:00,
2013-07-13 08:43:00,68.0,64.0,-100.00,SE,134,14.0,22.0,88,0.00,,,0.27,62.000000,,2013-07-13 13:43:00,
2013-07-13 08:53:00,68.0,64.0,-100.00,SE,134,14.0,22.0,88,0.00,,,0.27,62.000000,,2013-07-13 13:53:00,
2013-07-13 09:02:00,68.0,64.0,-100.00,SE,134,14.0,22.0,88,0.00,,,0.27,62.000000,,2013-07-13 14:02:00,
2013-07-13 09:11:00,69.0,64.0,-100.00,SSE,149,19.0,26.0,85,0.00,,,-99.99,196.000000,,2013-07-13 14:11:00,
2013-07-13 09:44:00,69.0,64.0,-100.00,SSE,149,19.0,26.0,85,0.00,,,-99.99,196.000000,,2013-07-13 14:44:00,
2013-07-13 09:53:00,69.0,64.0,-100.00,SSE,149,19.0,26.0,85,0.00,,,-99.99,196.000000,,2013-07-13 14:53:00,
2013-07-13 10:02:00,69.0,64.0,-100.00,SSE,149,19.0,26.0,85,0.00,,,-99.99,196.000000,,2013-07-13 15:02:00,
2013-07-13 10:11:00,68.0,64.0,-100.00,SSE,148,16.0,27.0,86,0.00,,,0.27,268.000000,,2013-07-13 15:11:00,
2013-07-13 10:43:00,68.0,64.0,-100.00,SSE,148,16.0,27.0,86,0.00,,,0.27,268.000000,,2013-07-13 15:43:00,
2013-07-13 10:53:00,68.0,64.0,-100.00,SSE,148,16.0,27.0,86,0.00,,,0.27,268.000000,,2013-07-13 15:53:00,
2013-07-13 11:02:00,68.0,64.0,-100.00,SSE,148,16.0,27.0,86,0.00,,,0.27,268.000000,,2013-07-13 16:02:00,
2013-07-13 11:11:00,71.0,65.0,-100.00,SSE,167,17.0,25.0,81,0.00,,,0.27,436.000000,,2013-07-13 16:11:00,
2013-07-13 11:43:00,71.0,65.0,-100.00,SSE,167,17.0,25.0,81,0.00,,,0.27,436.000000,,2013-07-13 16:43:00,
2013-07-13 11:53:00,71.0,65.0,-100.00,SSE,167,17.0,25.0,81,0.00,,,0.27,436.000000,,2013-07-13 16:53:00,
2013-07-13 12:01:00,71.0,65.0,-100.00,SSE,167,17.0,25.0,81,0.00,,,0.27,436.000000,,2013-07-13 17:01:00,
2013-07-13 12:11:00,72.0,65.0,-100.00,South,183,17.0,24.0,79,0.00,,,0.27,432.000000,,2013-07-13 17:11:00,
2013-07-13 12:43:00,72.0,65.0,-100.00,South,183,17.0,24.0,79,0.00,,,0.27,432.000000,,2013-07-13 17:43:00,
2013-07-13 12:52:00,72.0,65.0,-100.00,South,183,17.0,24.0,79,0.00,,,0.27,432.000000,,2013-07-13 17:52:00,
2013-07-13 13:01:00,72.0,65.0,-100.00,South,183,17.0,24.0,79,0.00,,,0.27,432.000000,,2013-07-13 18:01:00,
2013-07-13 13:11:00,73.0,66.0,-100.00,SE,137,8.0,20.0,79,0.00,,,0.27,472.000000,,2013-07-13 18:11:00,
2013-07-13 13:44:00,73.0,66.0,-100.00,SE,137,8.0,20.0,79,0.00,,,0.27,472.000000,,2013-07-13 18:44:00,
2013-07-13 13:53:00,73.0,66.0,-100.00,SE,137,8.0,20.0,79,0.00,,,0.27,472.000000,,2013-07-13 18:53:00,
2013-07-13 14:02:00,73.0,66.0,-100.00,SE,137,8.0,20.0,79,0.00,,,0.27,472.000000,,2013-07-13 19:02:00,
2013-07-13 14:11:00,72.0,65.0,-100.00,SE,146,14.0,20.0,80,0.00,,,0.27,224.000000,,2013-07-13 19:11:00,
2013-07-13 14:32:00,72.0,65.0,-100.00,SE,146,14.0,20.0,80,0.00,,,0.27,224.000000,,2013-07-13 19:32:00,
2013-07-13 14:44:00,72.0,65.0,-100.00,SE,146,14.0,20.0,80,0.00,,,0.27,224.000000,,2013-07-13 19:44:00,
2013-07-13 14:52:00,72.0,65.0,-100.00,SE,146,14.0,20.0,80,0.00,,,0.27,224.000000,,2013-07-13 19:52:00,
2013-07-13 15:01:00,72.0,65.0,-100.00,SE,146,14.0,20.0,80,0.00,,,0.27,224.000000,,2013-07-13 20:01:00,
2013-07-13 15:11:00,70.0,65.0,-100.00,SSW,209,4.0,23.0,84,0.00,,,0.27,165.000000,,2013-07-13 20:11:00,
2013-07-13 15:43:00,70.0,65.0,-100.00,SSW,209,4.0,23.0,84,0.00,,,0.27,165.000000,,2013-07-13 20:43:00,
2013-07-13 15:53:00,70.0,65.0,-100.00,SSW,209,4.0,23.0,84,0.00,,,0.27,165.000000,,2013-07-13 20:53:00,
2013-07-13 16:02:00,70.0,65.0,-100.00,SSW,209,4.0,23.0,84,0.00,,,0.27,165.000000,,2013-07-13 21:02:00,
2013-07-13 16:11:00,71.0,66.0,-100.00,SE,124,7.0,9.0,83,0.00,,,0.27,189.000000,,2013-07-13 21:11:00,
2013-07-13 16:43:00,71.0,66.0,-100.00,SE,124,7.0,9.0,83,0.00,,,0.27,189.000000,,2013-07-13 21:43:00,
2013-07-13 16:53:00,71.0,66.0,-100.00,SE,124,7.0,9.0,83,0.00,,,0.27,189.000000,,2013-07-13 21:53:00,
2013-07-13 17:01:00,71.0,66.0,-100.00,SE,124,7.0,9.0,83,0.00,,,0.27,189.000000,,2013-07-13 22:01:00,
2013-07-13 17:11:00,76.0,68.0,-100.00,SE,124,9.0,14.0,76,0.00,,,0.27,612.000000,,2013-07-13 22:11:00,
2013-07-13 17:43:00,76.0,68.0,-100.00,SE,124,9.0,14.0,76,0.00,,,0.27,612.000000,,2013-07-13 22:43:00,
2013-07-13 17:53:00,76.0,68.0,-100.00,SE,124,9.0,14.0,76,0.00,,,0.27,612.000000,,2013-07-13 22:53:00,
2013-07-13 18:01:00,76.0,68.0,-100.00,SE,124,9.0,14.0,76,0.00,,,0.27,612.000000,,2013-07-13 23:01:00,
2013-07-13 18:11:00,77.0,68.0,-100.00,ESE,111,8.0,16.0,75,0.00,,,0.27,489.000000,,2013-07-13 23:11:00,
2013-07-13 18:42:00,77.0,68.0,-100.00,ESE,111,8.0,16.0,75,0.00,,,0.27,489.000000,,2013-07-13 23:42:00,
2013-07-13 18:53:00,77.0,68.0,-100.00,ESE,111,8.0,16.0,75,0.00,,,0.27,489.000000,,2013-07-13 23:53:00,
2013-07-13 19:01:00,77.0,68.0,-100.00,ESE,111,8.0,16.0,75,0.00,,,0.27,489.000000,,2013-07-14 00:01:00,
2013-07-13 19:11:00,75.0,71.0,-100.00,East,101,8.0,12.0,86,0.00,,,-99.99,283.000000,,2013-07-14 00:11:00,
2013-07-13 19:42:00,75.0,71.0,-100.00,East,101,8.0,12.0,86,0.00,,,-99.99,283.000000,,2013-07-14 00:42:00,
2013-07-13 19:53:00,75.0,71.0,-100.00,East,101,8.0,12.0,86,0.00,,,-99.99,283.000000,,2013-07-14 00:53:00,
2013-07-13 20:02:00,75.0,71.0,-100.00,East,101,8.0,12.0,86,0.00,,,-99.99,283.000000,,2013-07-14 01:02:00,
2013-07-13 20:11:00,74.0,68.0,-100.00,SE,127,10.0,14.0,83,0.00,,,0.27,94.000000,,2013-07-14 01:11:00,
2013-07-13 20:43:00,74.0,68.0,-100.00,SE,127,10.0,14.0,83,0.00,,,0.27,94.000000,,2013-07-14 01:43:00,
2013-07-13 20:52:00,74.0,68.0,-100.00,SE,127,10.0,14.0,83,0.00,,,0.27,94.000000,,2013-07-14 01:52:00,
2013-07-13 21:02:00,74.0,68.0,-100.00,SE,127,10.0,14.0,83,0.00,,,0.27,94.000000,,2013-07-14 02:02:00,
2013-07-13 21:11:00,71.0,66.0,-100.00,ESE,118,7.0,14.0,83,0.00,,,0.27,20.000000,,2013-07-14 02:11:00,
2013-07-13 21:32:00,71.0,66.0,-100.00,ESE,118,7.0,14.0,83,0.00,,,0.27,20.000000,,2013-07-14 02:32:00,
2013-07-13 21:43:00,71.0,66.0,-100.00,ESE,118,7.0,14.0,83,0.00,,,0.27,20.000000,,2013-07-14 02:43:00,
2013-07-13 21:53:00,71.0,66.0,-100.00,ESE,118,7.0,14.0,83,0.00,,,0.27,20.000000,,2013-07-14 02:53:00,
2013-07-13 22:01:00,71.0,66.0,-100.00,ESE,118,7.0,14.0,83,0.00,,,0.27,20.000000,,2013-07-14 03:01:00,
2013-07-13 22:11:00,70.0,63.0,-100.00,ESE,114,9.0,13.0,78,0.00,,,0.27,0.000000,,2013-07-14 03:11:00,
2013-07-13 22:43:00,70.0,63.0,-100.00,ESE,114,9.0,13.0,78,0.00,,,0.27,0.000000,,2013-07-14 03:43:00,
2013-07-13 22:53:00,70.0,63.0,-100.00,ESE,114,9.0,13.0,78,0.00,,,0.27,0.000000,,2013-07-14 03:53:00,
2013-07-13 23:02:00,70.0,63.0,-100.00,ESE,114,9.0,13.0,78,0.00,,,0.27,0.000000,,2013-07-14 04:02:00,
2013-07-13 23:11:00,69.0,61.0,-100.00,SE,132,7.0,14.0,76,0.00,,,0.27,0.000000,,2013-07-14 04:11:00,
2013-07-13 23:32:00,69.0,61.0,-100.00,SE,132,7.0,14.0,76,0.00,,,0.27,0.000000,,2013-07-14 04:32:00,
2013-07-13 23:42:00,69.0,61.0,-100.00,SE,132,7.0,14.0,76,0.00,,,0.27,0.000000,,2013-07-14 04:42:00,
2013-07-13 23:54:00,69.0,61.0,-100.00,SE,132,7.0,14.0,76,0.00,,,0.27,0.000000,,2013-07-14 04:54:00,